Time;durP1;ratioP1;P1;durP2;ratioP2;P2;SDS_P1;SDS_P2;PMS_P1;PMS_P2;Temp;Humidity;BMP_temperature;BMP_pressure;BME280_temperature;BME280_humidity;BME280_pressure;Samples;Min_cycle;Max_cycle;Signal;HPM_P1;HPM_P2
2023/07/17 00:00:15;;;;;;;3.45;1.17;;;17.50;99.90;;;;;;5046028;28;20044;-72
2023/07/17 00:02:42;;;;;;;4.25;1.17;;;17.50;99.90;;;;;;5045009;28;20096;-72
2023/07/17 00:05:10;;;;;;;6.97;1.33;;;17.50;99.90;;;;;;5047969;28;20071;-71
2023/07/17 00:07:36;;;;;;;3.20;1.20;;;17.50;99.90;;;;;;5049880;28;20084;-72
2023/07/17 00:10:03;;;;;;;4.30;1.83;;;17.50;99.90;;;;;;5052454;28;20076;-72
2023/07/17 00:12:30;;;;;;;3.08;0.68;;;17.50;99.90;;;;;;5044855;28;20420;-72
2023/07/17 00:14:56;;;;;;;3.70;1.38;;;17.40;99.90;;;;;;5045741;28;20076;-72
2023/07/17 00:17:21;;;;;;;6.90;1.20;;;17.40;99.90;;;;;;5044763;28;20092;-72
2023/07/17 00:19:54;;;;;;;8.75;1.98;;;17.40;99.90;;;;;;5043710;28;20126;-73
2023/07/17 00:22:21;;;;;;;2.22;1.52;;;17.40;99.90;;;;;;5044532;28;20559;-72
2023/07/17 00:24:46;;;;;;;4.18;1.30;;;17.40;99.90;;;;;;5044269;28;20047;-72
2023/07/17 00:27:12;;;;;;;7.28;0.90;;;17.40;99.90;;;;;;5044692;28;20495;-71
2023/07/17 00:29:40;;;;;;;5.18;0.80;;;17.40;99.90;;;;;;5044130;28;20515;-72
2023/07/17 00:32:06;;;;;;;6.85;1.05;;;17.30;99.90;;;;;;5043026;28;20132;-72
2023/07/17 00:34:32;;;;;;;4.53;1.02;;;17.40;99.90;;;;;;5045038;28;20048;-71
2023/07/17 00:36:58;;;;;;;4.35;1.20;;;17.30;99.90;;;;;;5045239;28;20079;-72
2023/07/17 00:39:24;;;;;;;2.70;1.17;;;17.30;99.90;;;;;;5042926;28;20506;-71
2023/07/17 00:41:50;;;;;;;4.13;1.55;;;17.30;99.90;;;;;;5043184;28;20099;-72
2023/07/17 00:44:17;;;;;;;4.38;0.80;;;17.30;99.90;;;;;;5043510;28;20053;-72
2023/07/17 00:46:44;;;;;;;3.20;1.25;;;17.30;99.90;;;;;;5044540;28;20037;-72
2023/07/17 00:49:10;;;;;;;4.18;0.98;;;17.20;99.90;;;;;;5043146;28;20112;-71
2023/07/17 00:51:41;;;;;;;3.15;1.75;;;17.20;99.90;;;;;;5043218;28;20055;-72
2023/07/17 00:54:10;;;;;;;7.00;1.70;;;17.20;99.90;;;;;;5044274;28;20553;-71
2023/07/17 00:56:36;;;;;;;10.98;1.42;;;17.20;99.90;;;;;;5042728;28;20037;-72
2023/07/17 00:59:02;;;;;;;4.75;1.48;;;17.20;99.90;;;;;;5043396;28;20051;-72
2023/07/17 01:01:28;;;;;;;7.63;1.92;;;17.20;99.90;;;;;;5044181;28;20396;-72
2023/07/17 01:03:59;;;;;;;4.40;1.30;;;17.20;99.90;;;;;;5047948;28;20339;-72
2023/07/17 01:09:00;;;;;;;3.30;1.60;;;17.10;99.90;;;;;;5005576;28;20076;-74
2023/07/17 01:11:25;;;;;;;4.43;1.65;;;17.10;99.90;;;;;;5022956;28;20049;-72
2023/07/17 01:13:51;;;;;;;4.93;2.08;;;17.10;99.90;;;;;;5007562;28;20044;-71
2023/07/17 01:16:17;;;;;;;4.35;1.67;;;17.10;99.90;;;;;;5004570;28;20403;-72
2023/07/17 01:18:43;;;;;;;7.57;1.25;;;17.00;99.90;;;;;;5004615;28;20515;-72
2023/07/17 01:21:12;;;;;;;3.47;1.10;;;17.00;99.90;;;;;;5004425;28;20034;-72
2023/07/17 01:23:38;;;;;;;5.93;1.42;;;17.00;99.90;;;;;;5019700;28;20096;-73
2023/07/17 01:26:15;;;;;;;2.55;1.00;;;16.90;99.90;;;;;;5002989;28;20781;-72
2023/07/17 01:28:41;;;;;;;5.03;1.58;;;17.00;99.90;;;;;;5018833;28;20054;-72
2023/07/17 01:31:07;;;;;;;3.35;1.10;;;16.90;99.90;;;;;;5018840;28;20806;-72
2023/07/17 01:33:34;;;;;;;4.38;1.60;;;16.90;99.90;;;;;;5004627;28;20050;-72
2023/07/17 01:36:01;;;;;;;5.43;1.70;;;16.90;99.90;;;;;;5004087;28;20061;-74
2023/07/17 01:38:27;;;;;;;8.55;1.65;;;16.90;99.90;;;;;;5002934;28;20760;-72
2023/07/17 01:40:53;;;;;;;4.47;1.10;;;16.80;99.90;;;;;;5004265;28;20038;-72
2023/07/17 01:43:18;;;;;;;3.20;2.17;;;16.80;99.90;;;;;;5003122;28;20046;-71
2023/07/17 01:45:44;;;;;;;6.50;1.25;;;16.80;99.90;;;;;;5004156;28;20124;-72
2023/07/17 01:48:10;;;;;;;10.18;1.50;;;16.80;99.90;;;;;;5003829;28;20041;-72
2023/07/17 01:50:35;;;;;;;5.53;2.08;;;16.70;99.90;;;;;;5004023;28;20070;-72
2023/07/17 01:53:01;;;;;;;3.53;1.60;;;16.70;99.90;;;;;;5003261;28;20045;-72
2023/07/17 01:55:27;;;;;;;3.08;1.20;;;16.70;99.90;;;;;;5004831;28;20037;-71
2023/07/17 01:57:55;;;;;;;7.88;1.90;;;16.70;99.90;;;;;;5002896;28;20267;-72
2023/07/17 02:00:21;;;;;;;6.10;1.23;;;16.70;99.90;;;;;;5003401;28;20492;-72
2023/07/17 02:02:46;;;;;;;5.05;0.93;;;16.70;99.90;;;;;;5003724;28;20052;-72
2023/07/17 02:05:12;;;;;;;2.53;1.40;;;16.70;99.90;;;;;;5004102;28;20085;-72
2023/07/17 02:07:37;;;;;;;6.80;1.70;;;16.60;99.90;;;;;;5003514;28;20680;-72
2023/07/17 02:10:03;;;;;;;6.25;1.42;;;16.60;99.90;;;;;;5003280;28;20104;-72
2023/07/17 02:12:29;;;;;;;8.15;1.60;;;16.60;99.90;;;;;;5003171;28;20042;-72
2023/07/17 02:14:55;;;;;;;8.73;1.80;;;16.60;99.90;;;;;;5011703;28;20099;-71
2023/07/17 02:17:20;;;;;;;8.55;1.40;;;16.60;99.90;;;;;;5018192;28;20534;-72
2023/07/17 02:19:46;;;;;;;5.78;1.60;;;16.60;99.90;;;;;;5008221;28;20049;-72
2023/07/17 02:22:12;;;;;;;6.63;2.08;;;16.60;99.90;;;;;;5022572;28;20073;-72
2023/07/17 02:24:38;;;;;;;6.30;1.42;;;16.60;99.90;;;;;;5021044;28;20530;-73
2023/07/17 02:27:04;;;;;;;4.55;1.08;;;16.60;99.90;;;;;;5002372;28;20056;-72
2023/07/17 02:29:29;;;;;;;5.63;1.60;;;16.60;99.90;;;;;;5018938;28;20046;-73
2023/07/17 02:31:55;;;;;;;3.90;1.30;;;16.70;99.90;;;;;;5003727;28;20551;-71
2023/07/17 02:34:20;;;;;;;10.20;1.80;;;16.60;99.90;;;;;;5003382;28;20388;-71
2023/07/17 02:36:46;;;;;;;4.10;1.20;;;16.70;99.90;;;;;;5002327;28;20046;-72
2023/07/17 02:39:12;;;;;;;6.00;1.65;;;16.70;99.90;;;;;;5016122;28;20056;-72
2023/07/17 02:41:37;;;;;;;7.30;1.42;;;16.70;99.90;;;;;;5037782;28;20156;-72
2023/07/17 02:44:03;;;;;;;7.60;1.85;;;16.60;99.90;;;;;;5021006;28;20507;-72
2023/07/17 02:46:28;;;;;;;5.38;1.25;;;16.60;99.90;;;;;;5023500;28;20033;-71
2023/07/17 02:48:54;;;;;;;6.53;1.35;;;16.60;99.90;;;;;;5026935;28;20095;-72
2023/07/17 02:51:20;;;;;;;8.95;1.67;;;16.60;99.90;;;;;;5008644;28;20760;-72
2023/07/17 02:53:46;;;;;;;5.47;1.98;;;16.60;99.90;;;;;;5007511;28;20053;-71
2023/07/17 02:56:11;;;;;;;3.90;2.28;;;16.60;99.90;;;;;;5005755;28;20507;-72
2023/07/17 02:58:42;;;;;;;5.40;1.88;;;16.60;99.90;;;;;;5007187;28;20042;-72
2023/07/17 03:01:09;;;;;;;5.30;1.50;;;16.50;99.90;;;;;;5005592;28;20042;-71
2023/07/17 03:03:34;;;;;;;9.88;1.92;;;16.50;99.90;;;;;;5007239;28;20408;-72
2023/07/17 03:06:00;;;;;;;6.30;1.42;;;16.50;99.90;;;;;;5006324;28;20030;-73
2023/07/17 03:08:26;;;;;;;10.85;1.77;;;16.50;99.90;;;;;;5005639;28;20050;-72
2023/07/17 03:10:52;;;;;;;3.65;1.88;;;16.50;99.90;;;;;;5007139;28;20054;-71
2023/07/17 03:13:20;;;;;;;5.22;1.90;;;16.40;99.90;;;;;;5005801;28;20053;-71
2023/07/17 03:15:47;;;;;;;7.25;2.13;;;16.40;99.90;;;;;;5017363;28;20049;-72
2023/07/17 03:18:12;;;;;;;8.73;1.75;;;16.40;99.90;;;;;;5025957;28;20045;-72
2023/07/17 03:20:44;;;;;;;8.65;1.45;;;16.40;99.90;;;;;;5024726;28;20041;-71
2023/07/17 03:23:10;;;;;;;4.18;1.17;;;16.40;99.90;;;;;;5026019;28;20129;-72
2023/07/17 03:25:36;;;;;;;10.52;2.55;;;16.40;99.90;;;;;;5024876;28;20140;-71
2023/07/17 03:28:02;;;;;;;15.65;2.20;;;16.40;99.90;;;;;;5040220;28;20055;-71
2023/07/17 03:30:28;;;;;;;6.35;1.98;;;16.40;99.90;;;;;;5026510;28;20053;-72
2023/07/17 03:32:54;;;;;;;5.53;1.65;;;16.30;99.90;;;;;;5025090;28;20050;-72
2023/07/17 03:35:19;;;;;;;6.28;2.03;;;16.30;99.90;;;;;;5025908;28;20052;-71
2023/07/17 03:37:45;;;;;;;9.85;1.95;;;16.30;99.90;;;;;;5026247;28;20065;-72
2023/07/17 03:40:11;;;;;;;12.65;2.35;;;16.30;99.90;;;;;;5021548;28;20451;-71
2023/07/17 03:42:37;;;;;;;7.05;2.30;;;16.30;99.90;;;;;;5006442;28;20048;-71
2023/07/17 03:45:04;;;;;;;5.05;1.85;;;16.30;99.90;;;;;;5005601;28;20088;-71
2023/07/17 03:47:30;;;;;;;5.20;1.45;;;16.30;99.90;;;;;;5004997;28;20046;-72
2023/07/17 03:49:56;;;;;;;6.95;2.15;;;16.30;99.90;;;;;;5006789;28;20045;-72
2023/07/17 03:52:22;;;;;;;6.25;2.10;;;16.20;99.90;;;;;;5005595;28;20575;-72
2023/07/17 03:54:47;;;;;;;8.38;1.90;;;16.30;99.90;;;;;;5006025;28;20037;-71
2023/07/17 03:57:13;;;;;;;7.00;1.85;;;16.30;99.90;;;;;;4992324;28;20045;-71
2023/07/17 03:59:53;;;;;;;4.68;2.28;;;16.30;99.90;;;;;;5024315;28;20475;-72
2023/07/17 04:02:19;;;;;;;7.78;2.03;;;16.30;99.90;;;;;;5016581;28;20045;-72
2023/07/17 04:04:45;;;;;;;10.65;2.05;;;16.30;99.90;;;;;;5005853;28;20038;-72
2023/07/17 04:07:11;;;;;;;6.53;2.70;;;16.30;99.90;;;;;;5005420;28;20057;-72
2023/07/17 04:09:37;;;;;;;9.38;1.80;;;16.30;99.90;;;;;;5005844;28;20058;-72
2023/07/17 04:12:03;;;;;;;4.28;1.65;;;16.30;99.90;;;;;;5004969;28;20406;-72
2023/07/17 04:14:30;;;;;;;9.70;2.08;;;16.30;99.90;;;;;;5005587;28;20049;-72
2023/07/17 04:16:56;;;;;;;14.20;2.35;;;16.30;99.90;;;;;;5006006;28;20077;-71
2023/07/17 04:19:21;;;;;;;8.48;2.45;;;16.30;99.90;;;;;;5005476;28;20053;-71
2023/07/17 04:21:47;;;;;;;15.63;2.75;;;16.30;99.90;;;;;;5004146;28;20061;-72
2023/07/17 04:24:13;;;;;;;5.68;2.10;;;16.30;99.90;;;;;;5024160;28;20560;-72
2023/07/17 04:26:38;;;;;;;9.95;2.67;;;16.40;99.90;;;;;;5024339;28;20037;-71
2023/07/17 04:29:06;;;;;;;16.90;3.58;;;16.40;99.90;;;;;;5024608;28;20120;-72
2023/07/17 04:31:32;;;;;;;7.00;1.85;;;16.40;99.90;;;;;;5024277;28;20060;-72
2023/07/17 04:33:58;;;;;;;6.22;2.28;;;16.40;99.90;;;;;;5025431;28;20408;-71
2023/07/17 04:36:23;;;;;;;9.48;2.20;;;16.40;99.90;;;;;;5039643;28;20381;-71
2023/07/17 04:38:49;;;;;;;10.93;1.63;;;16.40;99.90;;;;;;5004683;28;20050;-71
2023/07/17 04:41:15;;;;;;;7.95;2.35;;;16.50;99.90;;;;;;5004086;28;20111;-71
2023/07/17 04:43:41;;;;;;;6.45;2.17;;;16.50;99.90;;;;;;5003206;28;20050;-72
2023/07/17 04:46:07;;;;;;;7.97;2.08;;;16.50;99.90;;;;;;5004090;28;20117;-71
2023/07/17 04:48:33;;;;;;;8.38;1.48;;;16.50;99.90;;;;;;5003753;28;20104;-72
2023/07/17 04:50:58;;;;;;;9.00;1.73;;;16.50;99.90;;;;;;5004562;28;20488;-72
2023/07/17 04:53:24;;;;;;;9.13;2.45;;;16.50;99.90;;;;;;5022347;28;20368;-73
2023/07/17 04:55:50;;;;;;;5.88;2.17;;;16.50;99.90;;;;;;5039700;28;20145;-72
2023/07/17 04:58:15;;;;;;;7.38;1.77;;;16.50;99.90;;;;;;5037141;28;20049;-72
2023/07/17 05:00:45;;;;;;;9.52;1.80;;;16.50;99.90;;;;;;5024843;28;20053;-72
2023/07/17 05:03:12;;;;;;;4.57;1.60;;;16.50;99.90;;;;;;5019961;28;20052;-72
2023/07/17 05:05:38;;;;;;;6.78;1.80;;;16.50;99.90;;;;;;5014358;28;20034;-72
2023/07/17 05:08:04;;;;;;;6.03;1.83;;;16.60;99.90;;;;;;5003895;28;20514;-72
2023/07/17 05:10:29;;;;;;;8.70;1.85;;;16.60;99.90;;;;;;5004200;28;20543;-74
2023/07/17 05:12:55;;;;;;;9.15;2.67;;;16.70;99.90;;;;;;5002886;28;20042;-71
2023/07/17 05:15:21;;;;;;;5.45;1.88;;;16.80;99.90;;;;;;5002043;28;20076;-72
2023/07/17 05:17:46;;;;;;;11.63;2.40;;;16.90;99.90;;;;;;5003154;28;20046;-73
2023/07/17 05:20:13;;;;;;;5.95;2.25;;;16.90;99.90;;;;;;5002243;28;20045;-72
2023/07/17 05:22:38;;;;;;;4.53;2.30;;;17.00;99.90;;;;;;5002559;28;20046;-73
2023/07/17 05:25:05;;;;;;;7.70;2.20;;;17.00;99.90;;;;;;5018066;28;20234;-73
2023/07/17 05:27:30;;;;;;;9.93;2.15;;;16.90;99.90;;;;;;5001026;28;20072;-74
2023/07/17 05:29:56;;;;;;;13.52;3.00;;;16.90;99.90;;;;;;5003551;28;20041;-72
2023/07/17 05:32:22;;;;;;;8.00;2.60;;;16.90;99.90;;;;;;5002909;28;20041;-72
2023/07/17 05:34:49;;;;;;;7.13;2.35;;;16.80;99.90;;;;;;5005085;28;20040;-73
2023/07/17 05:37:17;;;;;;;7.97;1.92;;;16.80;99.90;;;;;;5004657;28;20053;-72
2023/07/17 05:39:43;;;;;;;4.80;2.38;;;16.70;99.90;;;;;;5014786;28;20477;-72
2023/07/17 05:42:08;;;;;;;8.15;2.47;;;16.60;99.90;;;;;;5000808;28;20334;-73
2023/07/17 05:44:34;;;;;;;6.38;1.80;;;16.50;99.90;;;;;;5013155;28;20037;-72
2023/07/17 05:46:59;;;;;;;5.40;2.33;;;16.40;99.90;;;;;;5005699;28;20042;-74
2023/07/17 05:49:25;;;;;;;10.63;3.33;;;16.40;99.90;;;;;;5003278;28;20038;-72
2023/07/17 05:51:51;;;;;;;5.38;2.33;;;16.40;99.90;;;;;;5003408;28;20507;-72
2023/07/17 05:54:16;;;;;;;9.07;2.38;;;16.40;99.90;;;;;;5002736;28;20527;-72
2023/07/17 05:56:42;;;;;;;4.68;2.85;;;16.40;99.90;;;;;;5001121;28;20052;-72
2023/07/17 05:59:07;;;;;;;8.20;2.83;;;16.40;99.90;;;;;;5001526;28;20132;-72
2023/07/17 06:01:33;;;;;;;7.53;2.50;;;16.50;99.90;;;;;;5010511;28;20468;-72
2023/07/17 06:03:59;;;;;;;5.95;2.60;;;16.60;99.90;;;;;;5001693;28;20046;-72
2023/07/17 06:06:24;;;;;;;8.68;2.22;;;16.60;99.90;;;;;;5001862;28;20050;-72
2023/07/17 06:08:50;;;;;;;6.50;1.80;;;16.60;99.90;;;;;;5001044;28;20058;-72
2023/07/17 06:11:15;;;;;;;7.10;2.72;;;16.50;99.90;;;;;;5006274;28;20128;-73
2023/07/17 06:13:41;;;;;;;2.78;1.67;;;16.40;99.90;;;;;;5000945;28;20503;-73
2023/07/17 06:16:07;;;;;;;5.43;1.23;;;16.40;99.90;;;;;;5022868;28;20120;-73
2023/07/17 06:18:32;;;;;;;7.05;1.83;;;16.40;99.90;;;;;;5002753;28;20041;-72
2023/07/17 06:20:58;;;;;;;8.70;1.88;;;16.40;99.90;;;;;;5003805;28;20768;-72
2023/07/17 06:23:23;;;;;;;6.68;1.80;;;16.40;99.90;;;;;;5017861;28;20506;-71
2023/07/17 06:25:49;;;;;;;7.03;2.03;;;16.40;99.90;;;;;;5038754;28;20140;-71
2023/07/17 06:28:14;;;;;;;10.38;1.92;;;16.40;99.90;;;;;;5019174;28;20042;-71
2023/07/17 06:30:40;;;;;;;6.57;2.47;;;16.40;99.90;;;;;;5022878;28;20056;-71
2023/07/17 06:33:06;;;;;;;6.15;1.60;;;16.40;99.90;;;;;;5022361;28;20037;-71
2023/07/17 06:35:32;;;;;;;8.98;2.67;;;16.50;99.90;;;;;;5035313;28;20072;-71
2023/07/17 06:37:57;;;;;;;7.70;2.47;;;16.60;99.90;;;;;;5015898;28;20041;-71
2023/07/17 06:40:23;;;;;;;10.15;2.83;;;16.60;99.90;;;;;;5020796;28;20249;-71
2023/07/17 06:42:48;;;;;;;7.05;1.92;;;16.70;99.90;;;;;;5022120;28;20041;-71
2023/07/17 06:45:14;;;;;;;4.78;1.92;;;16.80;99.90;;;;;;4999043;28;20042;-71
2023/07/17 06:47:40;;;;;;;8.40;2.20;;;16.90;99.90;;;;;;5020512;28;20566;-72
2023/07/17 06:50:06;;;;;;;4.78;2.15;;;16.80;99.90;;;;;;5010432;28;20073;-71
2023/07/17 06:52:32;;;;;;;4.68;1.60;;;16.80;99.90;;;;;;5001279;28;20046;-71
2023/07/17 06:54:57;;;;;;;3.72;1.45;;;16.80;99.90;;;;;;5005218;28;20041;-71
2023/07/17 06:57:23;;;;;;;5.25;1.70;;;16.80;99.90;;;;;;5028609;28;20041;-71
2023/07/17 06:59:48;;;;;;;4.47;1.50;;;16.90;99.90;;;;;;5013106;28;20106;-71
2023/07/17 07:02:14;;;;;;;4.45;2.63;;;16.90;99.90;;;;;;5014360;28;20408;-70
2023/07/17 07:04:40;;;;;;;2.03;1.33;;;17.00;99.90;;;;;;5007227;28;20042;-71
2023/07/17 07:07:06;;;;;;;4.75;1.70;;;17.00;99.90;;;;;;5000901;28;20045;-72
2023/07/17 07:09:31;;;;;;;5.95;2.30;;;17.00;99.90;;;;;;5007487;28;20057;-72
2023/07/17 07:11:57;;;;;;;3.85;1.92;;;17.00;99.90;;;;;;5008110;28;20065;-71
2023/07/17 07:14:23;;;;;;;5.00;1.17;;;17.10;99.90;;;;;;5002097;28;20054;-72
2023/07/17 07:16:48;;;;;;;6.53;1.90;;;17.10;99.90;;;;;;5003883;28;20049;-72
2023/07/17 07:19:14;;;;;;;3.50;2.08;;;17.20;99.90;;;;;;5015459;28;20045;-71
2023/07/17 07:21:40;;;;;;;8.30;2.22;;;17.20;99.90;;;;;;5006031;28;20061;-72
2023/07/17 07:24:06;;;;;;;2.25;1.50;;;17.20;99.90;;;;;;5018521;28;20042;-71
2023/07/17 07:26:32;;;;;;;5.63;1.80;;;17.20;99.90;;;;;;5001370;28;20045;-71
2023/07/17 07:28:58;;;;;;;7.10;1.35;;;17.20;99.90;;;;;;5014397;28;20053;-72
2023/07/17 07:31:23;;;;;;;6.20;2.03;;;17.20;99.90;;;;;;5002804;28;20038;-71
2023/07/17 07:33:49;;;;;;;6.53;2.03;;;17.20;99.90;;;;;;5004732;28;20447;-71
2023/07/17 07:36:15;;;;;;;4.15;1.95;;;17.20;99.90;;;;;;5018341;28;20464;-72
2023/07/17 07:38:40;;;;;;;3.67;1.38;;;17.20;99.90;;;;;;5010966;28;20049;-72
2023/07/17 07:41:06;;;;;;;7.93;1.60;;;17.10;99.90;;;;;;5015103;28;20128;-72
2023/07/17 07:43:32;;;;;;;4.80;1.70;;;17.10;99.90;;;;;;5018567;28;20447;-70
2023/07/17 07:45:57;;;;;;;8.57;1.70;;;17.10;99.90;;;;;;5008996;28;20500;-72
2023/07/17 07:48:23;;;;;;;8.27;1.98;;;17.20;99.90;;;;;;5005485;28;20037;-71
2023/07/17 07:50:48;;;;;;;5.78;1.70;;;17.30;99.90;;;;;;5022798;28;20046;-71
2023/07/17 07:53:14;;;;;;;5.88;2.33;;;17.40;99.90;;;;;;5014119;28;20037;-71
2023/07/17 07:55:40;;;;;;;5.38;2.65;;;17.40;99.90;;;;;;5005879;28;20046;-72
2023/07/17 07:58:05;;;;;;;5.10;1.52;;;17.50;99.90;;;;;;5005147;28;20496;-71
2023/07/17 08:00:31;;;;;;;5.40;1.90;;;17.50;99.90;;;;;;5006147;28;20033;-71
2023/07/17 08:02:57;;;;;;;4.80;1.80;;;17.60;99.90;;;;;;5020261;28;20049;-71
2023/07/17 08:05:22;;;;;;;4.68;1.77;;;17.50;99.90;;;;;;5018136;28;20081;-71
2023/07/17 08:07:48;;;;;;;2.47;1.00;;;17.50;99.90;;;;;;5018526;28;20060;-71
2023/07/17 08:10:14;;;;;;;12.50;2.45;;;17.40;99.90;;;;;;5004259;28;20038;-71
2023/07/17 08:12:40;;;;;;;4.18;1.20;;;17.40;99.90;;;;;;4992329;28;20038;-72
2023/07/17 08:15:07;;;;;;;3.85;1.30;;;17.40;99.90;;;;;;5004394;28;20447;-72
2023/07/17 08:17:34;;;;;;;3.95;1.75;;;17.40;99.90;;;;;;5005867;28;20050;-72
2023/07/17 08:20:00;;;;;;;5.50;1.65;;;17.40;99.90;;;;;;5004749;28;20041;-72
2023/07/17 08:22:25;;;;;;;3.80;1.55;;;17.40;99.90;;;;;;5005511;28;20451;-71
2023/07/17 08:24:51;;;;;;;3.78;1.83;;;17.50;99.90;;;;;;5005000;28;20050;-72
2023/07/17 08:27:16;;;;;;;8.98;2.22;;;17.50;99.90;;;;;;5009865;28;20449;-70
2023/07/17 08:29:42;;;;;;;7.93;1.55;;;17.60;99.90;;;;;;5022826;28;20253;-71
2023/07/17 08:32:10;;;;;;;3.63;1.90;;;17.60;99.90;;;;;;5007882;28;20103;-71
2023/07/17 08:34:36;;;;;;;6.90;1.40;;;17.70;99.90;;;;;;5010518;28;20751;-70
2023/07/17 08:37:01;;;;;;;7.30;2.13;;;17.70;99.90;;;;;;5033008;28;20122;-71
2023/07/17 08:39:27;;;;;;;2.50;1.25;;;17.70;99.90;;;;;;5017105;28;20052;-71
2023/07/17 08:41:53;;;;;;;5.85;1.52;;;17.80;99.90;;;;;;5006732;28;20049;-71
2023/07/17 08:44:19;;;;;;;7.45;1.48;;;17.80;99.90;;;;;;5017157;28;20466;-71
2023/07/17 08:46:47;;;;;;;4.18;1.73;;;17.90;99.90;;;;;;5021946;28;20054;-70
2023/07/17 08:49:15;;;;;;;6.07;1.00;;;18.00;99.90;;;;;;5005598;28;20060;-71
2023/07/17 08:51:41;;;;;;;2.38;0.80;;;18.00;99.90;;;;;;5000610;28;20117;-71
2023/07/17 08:54:07;;;;;;;4.05;1.60;;;18.00;99.90;;;;;;5006112;28;20472;-70
2023/07/17 08:56:34;;;;;;;5.78;1.10;;;18.10;99.90;;;;;;5009295;28;20037;-71
2023/07/17 08:59:02;;;;;;;3.10;1.13;;;18.20;99.90;;;;;;5028581;28;20508;-71
2023/07/17 09:01:28;;;;;;;3.30;1.27;;;18.20;99.90;;;;;;5005221;28;20054;-71
2023/07/17 09:03:54;;;;;;;8.43;1.52;;;18.20;99.90;;;;;;5003512;28;20386;-72
2023/07/17 09:06:26;;;;;;;4.50;1.45;;;18.10;99.90;;;;;;5004771;28;20136;-71
2023/07/17 09:08:52;;;;;;;;;;;18.10;99.90;;;;;;5009173;28;20487;-71
2023/07/17 09:11:19;;;;;;;3.33;0.95;;;18.10;99.90;;;;;;5017031;28;19921;-71
2023/07/17 09:13:45;;;;;;;4.65;0.90;;;18.10;99.90;;;;;;5004882;28;20046;-71
2023/07/17 09:16:23;;;;;;;2.45;1.13;;;18.10;99.90;;;;;;5015740;28;20037;-70
2023/07/17 09:18:50;;;;;;;3.35;1.25;;;18.10;99.90;;;;;;4985055;28;20057;-71
2023/07/17 09:21:22;;;;;;;3.67;1.52;;;18.00;99.90;;;;;;4996074;28;20052;-71
2023/07/17 09:23:54;;;;;;;4.95;1.10;;;18.10;99.90;;;;;;5010544;28;20438;-70
2023/07/17 09:26:21;;;;;;;5.25;1.38;;;18.10;99.90;;;;;;4998069;28;20050;-71
2023/07/17 09:28:50;;;;;;;4.90;1.30;;;18.10;99.90;;;;;;5013809;28;20029;-71
2023/07/17 09:31:27;;;;;;;3.63;1.60;;;18.10;99.90;;;;;;5006008;28;20049;-70
2023/07/17 09:34:16;;;;;;;5.78;1.50;;;18.10;99.90;;;;;;4984119;28;20497;-70
2023/07/17 09:36:43;;;;;;;1.83;1.27;;;18.10;99.90;;;;;;5012290;28;20124;-71
2023/07/17 09:39:10;;;;;;;1.85;0.90;;;18.20;99.90;;;;;;5018884;28;20045;-71
2023/07/17 09:41:35;;;;;;;5.03;1.90;;;18.20;99.90;;;;;;5005051;28;20045;-71
2023/07/17 09:44:06;;;;;;;6.60;1.60;;;18.20;99.90;;;;;;5010118;28;20043;-70
2023/07/17 09:46:34;;;;;;;3.78;1.60;;;18.30;99.90;;;;;;5011324;28;20037;-70
2023/07/17 09:49:01;;;;;;;3.80;1.33;;;18.30;99.90;;;;;;5012960;28;20034;-72
2023/07/17 09:51:28;;;;;;;2.17;1.55;;;18.30;99.90;;;;;;5019034;28;20651;-70
2023/07/17 09:53:55;;;;;;;4.20;1.02;;;18.30;99.90;;;;;;5018752;28;20042;-70
2023/07/17 09:56:22;;;;;;;4.88;1.45;;;18.30;99.90;;;;;;5023374;28;20052;-70
2023/07/17 09:58:51;;;;;;;2.80;1.23;;;18.30;99.90;;;;;;5006874;28;20386;-70
2023/07/17 10:01:23;;;;;;;3.97;1.50;;;18.30;99.90;;;;;;5004228;28;20057;-71
2023/07/17 10:03:50;;;;;;;4.65;1.40;;;18.30;99.90;;;;;;5013171;28;20119;-70
2023/07/17 10:06:19;;;;;;;2.35;0.85;;;18.40;99.90;;;;;;4990181;28;20104;-70
2023/07/17 10:08:47;;;;;;;4.00;1.17;;;18.50;99.90;;;;;;5001316;28;20072;-70
2023/07/17 10:11:15;;;;;;;8.18;3.05;;;18.50;99.90;;;;;;5000501;28;20049;-71
2023/07/17 10:13:43;;;;;;;1.92;1.17;;;18.50;99.90;;;;;;5002799;28;20084;-71
2023/07/17 10:16:09;;;;;;;4.82;1.45;;;18.60;99.90;;;;;;5037241;28;20052;-71
2023/07/17 10:18:47;;;;;;;7.18;1.40;;;18.60;99.90;;;;;;5008468;28;20573;-70
2023/07/17 10:21:14;;;;;;;2.92;1.70;;;18.70;99.90;;;;;;5001693;28;20040;-70
2023/07/17 10:23:42;;;;;;;1.98;1.65;;;18.70;99.90;;;;;;4999971;28;20049;-70
2023/07/17 10:26:09;;;;;;;4.15;1.27;;;18.80;99.90;;;;;;5000905;28;20046;-71
2023/07/17 10:28:39;;;;;;;4.68;1.40;;;18.80;99.90;;;;;;5002960;28;20508;-70
2023/07/17 10:31:10;;;;;;;3.35;1.27;;;18.80;99.90;;;;;;5002340;28;20046;-70
2023/07/17 10:33:37;;;;;;;2.92;1.30;;;18.80;99.90;;;;;;5001349;28;20041;-70
2023/07/17 10:36:03;;;;;;;3.65;0.85;;;18.70;99.90;;;;;;5017596;28;20054;-70
2023/07/17 10:38:34;;;;;;;3.75;1.05;;;18.70;99.90;;;;;;5002392;28;20528;-71
2023/07/17 10:41:06;;;;;;;4.88;1.80;;;18.70;99.90;;;;;;5001246;28;20034;-72
2023/07/17 10:43:35;;;;;;;6.25;1.48;;;18.70;99.90;;;;;;5005291;28;20535;-71
2023/07/17 10:46:08;;;;;;;2.17;1.40;;;18.80;99.90;;;;;;5002347;28;20038;-72
2023/07/17 10:48:34;;;;;;;4.85;1.30;;;18.80;99.90;;;;;;5007355;28;20072;-71
2023/07/17 10:51:00;;;;;;;3.28;1.25;;;18.90;99.90;;;;;;5017317;28;20046;-72
2023/07/17 10:53:26;;;;;;;1.90;0.90;;;18.90;99.90;;;;;;5003245;28;20088;-71
2023/07/17 10:55:51;;;;;;;2.90;1.58;;;19.00;99.90;;;;;;5000009;28;20085;-70
2023/07/17 10:58:19;;;;;;;1.42;1.30;;;18.90;99.90;;;;;;5016982;28;20084;-71
2023/07/17 11:00:45;;;;;;;4.50;1.35;;;18.90;99.90;;;;;;5037676;28;20041;-70
2023/07/17 11:03:13;;;;;;;3.20;1.33;;;18.90;99.90;;;;;;5006242;28;20136;-70
2023/07/17 11:05:40;;;;;;;2.55;1.38;;;19.00;99.90;;;;;;5002569;28;20049;-71
2023/07/17 11:08:11;;;;;;;4.07;1.30;;;19.10;99.90;;;;;;5003758;28;20049;-72
2023/07/17 11:10:41;;;;;;;7.55;1.40;;;19.20;99.90;;;;;;5014724;28;20049;-73
2023/07/17 11:13:07;;;;;;;6.88;1.63;;;19.30;99.90;;;;;;5011826;28;20068;-72
2023/07/17 11:15:34;;;;;;;4.40;1.80;;;19.30;99.90;;;;;;5019319;28;20519;-71
2023/07/17 11:18:01;;;;;;;1.42;0.90;;;19.30;99.90;;;;;;5013219;28;20104;-74
2023/07/17 11:20:31;;;;;;;3.53;1.60;;;19.30;99.90;;;;;;5010277;28;20057;-71
2023/07/17 11:22:57;;;;;;;5.65;1.40;;;19.40;99.90;;;;;;5007980;28;20049;-71
2023/07/17 11:25:33;;;;;;;2.83;2.00;;;19.40;99.90;;;;;;5013513;28;20507;-73
2023/07/17 11:28:00;;;;;;;2.22;1.98;;;19.40;99.90;;;;;;5018430;28;20064;-73
2023/07/17 11:30:27;;;;;;;3.88;1.08;;;19.40;99.90;;;;;;5005072;28;20400;-72
2023/07/17 11:33:02;;;;;;;2.20;1.98;;;19.40;99.90;;;;;;5015306;28;20045;-72
2023/07/17 11:35:39;;;;;;;6.15;1.27;;;19.40;99.90;;;;;;5041808;28;20603;-73
2023/07/17 11:38:10;;;;;;;2.33;1.40;;;19.50;99.90;;;;;;5008878;28;20116;-71
2023/07/17 11:40:49;;;;;;;2.93;1.10;;;19.50;99.90;;;;;;5009331;28;20077;-72
2023/07/17 11:43:21;;;;;;;2.28;1.20;;;19.40;99.90;;;;;;5007769;28;20492;-72
2023/07/17 11:45:47;;;;;;;2.63;1.15;;;19.40;99.90;;;;;;5013094;28;20033;-72
2023/07/17 11:48:13;;;;;;;2.70;1.77;;;19.40;99.90;;;;;;5004855;28;20488;-71
2023/07/17 11:50:41;;;;;;;4.38;1.55;;;19.50;99.90;;;;;;5009258;28;20049;-71
2023/07/17 11:53:08;;;;;;;3.90;1.52;;;19.50;99.90;;;;;;5014711;28;20041;-72
2023/07/17 11:55:41;;;;;;;6.43;1.40;;;19.50;99.90;;;;;;5018247;28;20052;-71
2023/07/17 11:58:17;;;;;;;6.13;1.05;;;19.50;99.90;;;;;;5009144;28;20050;-73
2023/07/17 12:00:44;;;;;;;8.55;1.77;;;19.50;99.90;;;;;;5020577;28;20073;-72
2023/07/17 12:03:10;;;;;;;2.85;1.40;;;19.50;99.90;;;;;;5005303;28;20050;-74
2023/07/17 12:05:37;;;;;;;4.53;1.30;;;19.60;99.90;;;;;;5013041;28;20099;-72
2023/07/17 12:08:03;;;;;;;2.92;1.42;;;19.50;99.90;;;;;;5010337;28;20054;-72
2023/07/17 12:10:28;;;;;;;5.25;1.50;;;19.50;99.90;;;;;;5004618;28;20092;-71
2023/07/17 12:12:54;;;;;;;5.72;2.17;;;19.40;99.90;;;;;;5018427;28;20353;-71
2023/07/17 12:15:20;;;;;;;5.65;1.25;;;19.40;99.90;;;;;;5030931;28;20060;-72
2023/07/17 12:17:46;;;;;;;5.78;1.67;;;19.50;99.90;;;;;;5003282;28;20092;-71
2023/07/17 12:20:15;;;;;;;4.43;1.67;;;19.50;99.90;;;;;;5003361;28;20037;-71
2023/07/17 12:22:52;;;;;;;4.45;1.77;;;19.50;99.90;;;;;;5019107;28;20041;-71
2023/07/17 12:25:18;;;;;;;5.15;1.52;;;19.50;99.90;;;;;;5023394;28;20693;-74
2023/07/17 12:27:45;;;;;;;3.38;1.17;;;19.50;99.90;;;;;;5009653;28;20526;-72
2023/07/17 12:30:11;;;;;;;7.00;1.48;;;19.50;99.90;;;;;;5003905;28;20077;-72
2023/07/17 12:32:38;;;;;;;1.92;0.70;;;19.60;99.90;;;;;;5020466;28;20040;-72
2023/07/17 12:35:05;;;;;;;1.85;1.00;;;19.60;99.90;;;;;;5023806;28;20037;-72
2023/07/17 12:37:31;;;;;;;7.22;1.48;;;19.60;99.90;;;;;;5024627;28;20041;-73
2023/07/17 12:39:57;;;;;;;3.42;1.30;;;19.60;99.90;;;;;;5024053;28;20045;-71
2023/07/17 12:42:23;;;;;;;2.47;1.25;;;19.60;99.90;;;;;;5020693;28;20470;-72
2023/07/17 12:44:48;;;;;;;3.40;1.45;;;19.60;99.90;;;;;;5003571;28;20092;-71